sensor_id;sensor_type;location;lat;lon;timestamp;P1;durP1;ratioP1;P2;durP2;ratioP2
577;SDS011;275;48.492;9.214;2023-05-15T00:01:32;14.85;;;13.75;;
577;SDS011;275;48.492;9.214;2023-05-15T00:03:59;14.20;;;13.20;;
577;SDS011;275;48.492;9.214;2023-05-15T00:06:26;14.63;;;13.52;;
577;SDS011;275;48.492;9.214;2023-05-15T00:08:54;14.38;;;13.18;;
577;SDS011;275;48.492;9.214;2023-05-15T00:11:21;15.32;;;14.07;;
577;SDS011;275;48.492;9.214;2023-05-15T00:13:48;13.73;;;12.63;;
577;SDS011;275;48.492;9.214;2023-05-15T00:16:15;13.02;;;12.02;;
577;SDS011;275;48.492;9.214;2023-05-15T00:18:42;13.63;;;12.50;;
577;SDS011;275;48.492;9.214;2023-05-15T00:21:08;13.95;;;12.98;;
577;SDS011;275;48.492;9.214;2023-05-15T00:23:35;13.98;;;12.98;;
577;SDS011;275;48.492;9.214;2023-05-15T00:26:03;14.38;;;13.27;;
577;SDS011;275;48.492;9.214;2023-05-15T00:28:30;14.23;;;13.13;;
577;SDS011;275;48.492;9.214;2023-05-15T00:30:57;14.07;;;12.98;;
577;SDS011;275;48.492;9.214;2023-05-15T00:33:24;15.40;;;14.18;;
577;SDS011;275;48.492;9.214;2023-05-15T00:35:51;14.43;;;13.32;;
577;SDS011;275;48.492;9.214;2023-05-15T00:38:17;15.45;;;14.35;;
577;SDS011;275;48.492;9.214;2023-05-15T00:40:44;15.73;;;14.43;;
577;SDS011;275;48.492;9.214;2023-05-15T00:43:12;14.07;;;12.93;;
577;SDS011;275;48.492;9.214;2023-05-15T00:45:41;15.88;;;14.55;;
577;SDS011;275;48.492;9.214;2023-05-15T00:48:08;14.80;;;13.60;;
577;SDS011;275;48.492;9.214;2023-05-15T00:50:35;13.90;;;12.75;;
577;SDS011;275;48.492;9.214;2023-05-15T00:53:03;14.02;;;12.77;;
577;SDS011;275;48.492;9.214;2023-05-15T00:55:31;13.35;;;12.07;;
577;SDS011;275;48.492;9.214;2023-05-15T00:57:59;14.55;;;13.35;;
577;SDS011;275;48.492;9.214;2023-05-15T01:00:27;14.93;;;13.73;;
577;SDS011;275;48.492;9.214;2023-05-15T01:02:57;13.85;;;12.75;;
577;SDS011;275;48.492;9.214;2023-05-15T01:05:25;14.02;;;12.93;;
577;SDS011;275;48.492;9.214;2023-05-15T01:07:55;14.10;;;13.00;;
577;SDS011;275;48.492;9.214;2023-05-15T01:10:29;14.40;;;13.15;;
577;SDS011;275;48.492;9.214;2023-05-15T01:12:58;13.38;;;12.30;;
577;SDS011;275;48.492;9.214;2023-05-15T01:15:28;14.70;;;13.43;;
577;SDS011;275;48.492;9.214;2023-05-15T01:17:55;14.07;;;12.98;;
577;SDS011;275;48.492;9.214;2023-05-15T01:20:22;13.90;;;12.80;;
577;SDS011;275;48.492;9.214;2023-05-15T01:22:54;14.63;;;13.50;;
577;SDS011;275;48.492;9.214;2023-05-15T01:25:56;14.10;;;12.90;;
577;SDS011;275;48.492;9.214;2023-05-15T01:28:45;13.98;;;12.82;;
577;SDS011;275;48.492;9.214;2023-05-15T01:31:18;13.88;;;12.77;;
577;SDS011;275;48.492;9.214;2023-05-15T01:33:50;13.07;;;12.07;;
577;SDS011;275;48.492;9.214;2023-05-15T01:36:23;12.45;;;11.45;;
577;SDS011;275;48.492;9.214;2023-05-15T01:38:55;12.55;;;11.55;;
577;SDS011;275;48.492;9.214;2023-05-15T01:41:27;13.63;;;12.52;;
577;SDS011;275;48.492;9.214;2023-05-15T01:43:59;12.85;;;11.65;;
577;SDS011;275;48.492;9.214;2023-05-15T01:46:30;13.25;;;12.25;;
577;SDS011;275;48.492;9.214;2023-05-15T01:48:59;10.98;;;10.10;;
577;SDS011;275;48.492;9.214;2023-05-15T01:51:28;12.18;;;11.18;;
577;SDS011;275;48.492;9.214;2023-05-15T01:53:57;12.02;;;11.02;;
577;SDS011;275;48.492;9.214;2023-05-15T01:56:24;11.93;;;11.02;;
577;SDS011;275;48.492;9.214;2023-05-15T01:58:52;11.35;;;10.45;;
577;SDS011;275;48.492;9.214;2023-05-15T02:01:21;11.98;;;10.98;;
577;SDS011;275;48.492;9.214;2023-05-15T02:03:50;12.20;;;11.30;;
577;SDS011;275;48.492;9.214;2023-05-15T02:06:18;12.68;;;11.60;;
577;SDS011;275;48.492;9.214;2023-05-15T02:08:46;10.88;;;9.98;;
577;SDS011;275;48.492;9.214;2023-05-15T02:11:14;11.10;;;10.20;;
577;SDS011;275;48.492;9.214;2023-05-15T02:13:41;12.95;;;11.85;;
577;SDS011;275;48.492;9.214;2023-05-15T02:16:08;13.30;;;12.23;;
577;SDS011;275;48.492;9.214;2023-05-15T02:18:36;14.05;;;12.95;;
577;SDS011;275;48.492;9.214;2023-05-15T02:21:03;14.90;;;13.73;;
577;SDS011;275;48.492;9.214;2023-05-15T02:23:30;15.40;;;14.02;;
577;SDS011;275;48.492;9.214;2023-05-15T02:26:05;15.35;;;14.20;;
577;SDS011;275;48.492;9.214;2023-05-15T02:28:38;14.77;;;13.68;;
577;SDS011;275;48.492;9.214;2023-05-15T02:31:13;15.27;;;14.00;;
577;SDS011;275;48.492;9.214;2023-05-15T02:33:49;13.85;;;12.82;;
577;SDS011;275;48.492;9.214;2023-05-15T02:36:25;13.70;;;12.60;;
577;SDS011;275;48.492;9.214;2023-05-15T02:38:55;14.05;;;11.80;;
577;SDS011;275;48.492;9.214;2023-05-15T02:41:24;11.65;;;10.60;;
577;SDS011;275;48.492;9.214;2023-05-15T02:43:52;13.38;;;12.38;;
577;SDS011;275;48.492;9.214;2023-05-15T02:46:20;13.45;;;12.27;;
577;SDS011;275;48.492;9.214;2023-05-15T02:48:50;13.48;;;12.38;;
577;SDS011;275;48.492;9.214;2023-05-15T02:51:18;12.57;;;11.57;;
577;SDS011;275;48.492;9.214;2023-05-15T02:53:45;12.95;;;11.88;;
577;SDS011;275;48.492;9.214;2023-05-15T02:56:12;13.20;;;12.15;;
577;SDS011;275;48.492;9.214;2023-05-15T02:58:39;13.35;;;12.25;;
577;SDS011;275;48.492;9.214;2023-05-15T03:01:07;13.32;;;12.32;;
577;SDS011;275;48.492;9.214;2023-05-15T03:03:34;13.90;;;12.80;;
577;SDS011;275;48.492;9.214;2023-05-15T03:06:02;13.20;;;12.05;;
577;SDS011;275;48.492;9.214;2023-05-15T03:08:29;12.02;;;11.13;;
577;SDS011;275;48.492;9.214;2023-05-15T03:10:56;12.30;;;11.30;;
577;SDS011;275;48.492;9.214;2023-05-15T03:13:23;12.00;;;11.07;;
577;SDS011;275;48.492;9.214;2023-05-15T03:15:50;11.80;;;10.90;;
577;SDS011;275;48.492;9.214;2023-05-15T03:18:17;12.48;;;11.57;;
577;SDS011;275;48.492;9.214;2023-05-15T03:20:44;13.50;;;12.40;;
577;SDS011;275;48.492;9.214;2023-05-15T03:23:13;11.85;;;10.95;;
577;SDS011;275;48.492;9.214;2023-05-15T03:25:40;12.82;;;11.82;;
577;SDS011;275;48.492;9.214;2023-05-15T03:28:07;11.60;;;10.70;;
577;SDS011;275;48.492;9.214;2023-05-15T03:30:34;11.52;;;10.60;;
577;SDS011;275;48.492;9.214;2023-05-15T03:33:01;12.18;;;11.20;;
577;SDS011;275;48.492;9.214;2023-05-15T03:35:28;11.55;;;10.65;;
577;SDS011;275;48.492;9.214;2023-05-15T03:37:56;12.18;;;11.00;;
577;SDS011;275;48.492;9.214;2023-05-15T03:40:24;12.95;;;11.95;;
577;SDS011;275;48.492;9.214;2023-05-15T03:42:51;12.20;;;11.25;;
577;SDS011;275;48.492;9.214;2023-05-15T03:45:18;12.60;;;11.60;;
577;SDS011;275;48.492;9.214;2023-05-15T03:47:45;13.10;;;12.10;;
577;SDS011;275;48.492;9.214;2023-05-15T03:50:12;12.82;;;11.82;;
577;SDS011;275;48.492;9.214;2023-05-15T03:52:39;11.70;;;10.80;;
577;SDS011;275;48.492;9.214;2023-05-15T03:55:06;12.70;;;11.70;;
577;SDS011;275;48.492;9.214;2023-05-15T03:57:35;13.80;;;12.60;;
577;SDS011;275;48.492;9.214;2023-05-15T04:00:01;13.65;;;12.45;;
577;SDS011;275;48.492;9.214;2023-05-15T04:02:33;13.63;;;12.48;;
577;SDS011;275;48.492;9.214;2023-05-15T04:05:01;13.52;;;12.50;;
577;SDS011;275;48.492;9.214;2023-05-15T04:07:28;14.13;;;13.02;;
577;SDS011;275;48.492;9.214;2023-05-15T04:09:54;12.32;;;11.32;;
577;SDS011;275;48.492;9.214;2023-05-15T04:12:25;12.57;;;11.57;;
577;SDS011;275;48.492;9.214;2023-05-15T04:14:55;13.32;;;12.05;;
577;SDS011;275;48.492;9.214;2023-05-15T04:17:21;13.60;;;11.98;;
577;SDS011;275;48.492;9.214;2023-05-15T04:19:48;13.20;;;12.20;;
577;SDS011;275;48.492;9.214;2023-05-15T04:22:15;12.57;;;11.38;;
577;SDS011;275;48.492;9.214;2023-05-15T04:24:42;11.55;;;10.65;;
577;SDS011;275;48.492;9.214;2023-05-15T04:27:09;13.18;;;11.98;;
577;SDS011;275;48.492;9.214;2023-05-15T04:29:35;11.93;;;10.82;;
577;SDS011;275;48.492;9.214;2023-05-15T04:32:04;12.25;;;11.25;;
577;SDS011;275;48.492;9.214;2023-05-15T04:34:31;11.38;;;10.25;;
577;SDS011;275;48.492;9.214;2023-05-15T04:36:57;11.30;;;10.40;;
577;SDS011;275;48.492;9.214;2023-05-15T04:39:25;11.30;;;10.40;;
577;SDS011;275;48.492;9.214;2023-05-15T04:41:52;11.18;;;10.18;;
577;SDS011;275;48.492;9.214;2023-05-15T04:44:18;10.90;;;10.00;;
577;SDS011;275;48.492;9.214;2023-05-15T04:46:45;11.18;;;10.18;;
577;SDS011;275;48.492;9.214;2023-05-15T04:49:13;11.38;;;10.30;;
577;SDS011;275;48.492;9.214;2023-05-15T04:51:40;10.57;;;9.77;;
577;SDS011;275;48.492;9.214;2023-05-15T04:54:07;11.15;;;10.07;;
577;SDS011;275;48.492;9.214;2023-05-15T04:56:34;11.90;;;10.30;;
577;SDS011;275;48.492;9.214;2023-05-15T04:59:01;11.35;;;10.35;;
577;SDS011;275;48.492;9.214;2023-05-15T05:01:28;11.88;;;10.88;;
577;SDS011;275;48.492;9.214;2023-05-15T05:03:55;11.48;;;10.52;;
577;SDS011;275;48.492;9.214;2023-05-15T05:06:23;11.25;;;10.45;;
577;SDS011;275;48.492;9.214;2023-05-15T05:08:50;11.13;;;10.13;;
577;SDS011;275;48.492;9.214;2023-05-15T05:11:16;9.73;;;8.82;;
577;SDS011;275;48.492;9.214;2023-05-15T05:13:43;10.35;;;9.48;;
577;SDS011;275;48.492;9.214;2023-05-15T05:16:10;11.40;;;10.50;;
577;SDS011;275;48.492;9.214;2023-05-15T05:18:37;11.10;;;10.10;;
577;SDS011;275;48.492;9.214;2023-05-15T05:21:04;10.10;;;9.30;;
577;SDS011;275;48.492;9.214;2023-05-15T05:23:34;10.13;;;9.23;;
577;SDS011;275;48.492;9.214;2023-05-15T05:26:01;10.43;;;9.63;;
577;SDS011;275;48.492;9.214;2023-05-15T05:28:28;9.97;;;9.17;;
577;SDS011;275;48.492;9.214;2023-05-15T05:30:55;10.17;;;9.17;;
577;SDS011;275;48.492;9.214;2023-05-15T05:33:21;10.77;;;9.83;;
577;SDS011;275;48.492;9.214;2023-05-15T05:35:48;9.00;;;8.30;;
577;SDS011;275;48.492;9.214;2023-05-15T05:38:15;9.57;;;8.83;;
577;SDS011;275;48.492;9.214;2023-05-15T05:40:43;8.77;;;8.07;;
577;SDS011;275;48.492;9.214;2023-05-15T05:43:10;9.70;;;8.80;;
577;SDS011;275;48.492;9.214;2023-05-15T05:45:37;9.23;;;7.97;;
577;SDS011;275;48.492;9.214;2023-05-15T05:48:05;9.67;;;8.67;;
577;SDS011;275;48.492;9.214;2023-05-15T05:50:31;9.80;;;8.80;;
577;SDS011;275;48.492;9.214;2023-05-15T05:52:58;9.30;;;8.47;;
577;SDS011;275;48.492;9.214;2023-05-15T05:55:25;9.27;;;8.23;;
577;SDS011;275;48.492;9.214;2023-05-15T05:57:53;9.60;;;7.97;;
577;SDS011;275;48.492;9.214;2023-05-15T06:00:20;8.03;;;7.23;;
577;SDS011;275;48.492;9.214;2023-05-15T06:02:48;8.73;;;8.00;;
577;SDS011;275;48.492;9.214;2023-05-15T06:05:15;8.00;;;6.67;;
577;SDS011;275;48.492;9.214;2023-05-15T06:07:42;8.40;;;7.70;;
577;SDS011;275;48.492;9.214;2023-05-15T06:10:09;7.40;;;6.80;;
577;SDS011;275;48.492;9.214;2023-05-15T06:12:37;7.00;;;6.30;;
577;SDS011;275;48.492;9.214;2023-05-15T06:15:05;7.00;;;6.40;;
577;SDS011;275;48.492;9.214;2023-05-15T06:17:33;9.23;;;7.70;;
577;SDS011;275;48.492;9.214;2023-05-15T06:19:59;7.83;;;7.13;;
577;SDS011;275;48.492;9.214;2023-05-15T06:22:26;8.03;;;7.23;;
577;SDS011;275;48.492;9.214;2023-05-15T06:24:53;8.00;;;7.20;;
577;SDS011;275;48.492;9.214;2023-05-15T06:27:20;8.03;;;7.23;;
577;SDS011;275;48.492;9.214;2023-05-15T06:29:50;7.70;;;7.00;;
577;SDS011;275;48.492;9.214;2023-05-15T06:32:18;9.13;;;6.83;;
577;SDS011;275;48.492;9.214;2023-05-15T06:34:45;6.90;;;6.30;;
577;SDS011;275;48.492;9.214;2023-05-15T06:37:12;10.73;;;7.97;;
577;SDS011;275;48.492;9.214;2023-05-15T06:39:39;7.90;;;7.20;;
577;SDS011;275;48.492;9.214;2023-05-15T06:42:05;7.60;;;6.90;;
577;SDS011;275;48.492;9.214;2023-05-15T06:44:32;8.47;;;7.67;;
577;SDS011;275;48.492;9.214;2023-05-15T06:46:59;7.70;;;7.10;;
577;SDS011;275;48.492;9.214;2023-05-15T06:49:28;6.63;;;6.03;;
577;SDS011;275;48.492;9.214;2023-05-15T06:51:55;7.43;;;6.73;;
577;SDS011;275;48.492;9.214;2023-05-15T06:54:22;7.43;;;6.83;;
577;SDS011;275;48.492;9.214;2023-05-15T06:56:49;7.40;;;6.70;;
577;SDS011;275;48.492;9.214;2023-05-15T06:59:15;7.73;;;7.03;;
577;SDS011;275;48.492;9.214;2023-05-15T07:01:42;7.00;;;6.40;;
577;SDS011;275;48.492;9.214;2023-05-15T07:04:09;7.93;;;7.13;;
577;SDS011;275;48.492;9.214;2023-05-15T07:06:37;7.43;;;6.73;;
577;SDS011;275;48.492;9.214;2023-05-15T07:09:04;8.70;;;7.23;;
577;SDS011;275;48.492;9.214;2023-05-15T07:11:31;6.30;;;5.70;;
577;SDS011;275;48.492;9.214;2023-05-15T07:14:01;6.77;;;6.07;;
577;SDS011;275;48.492;9.214;2023-05-15T07:16:28;6.33;;;5.80;;
577;SDS011;275;48.492;9.214;2023-05-15T07:18:54;6.50;;;5.90;;
577;SDS011;275;48.492;9.214;2023-05-15T07:21:21;7.23;;;6.53;;
577;SDS011;275;48.492;9.214;2023-05-15T07:23:49;7.40;;;6.70;;
577;SDS011;275;48.492;9.214;2023-05-15T07:26:16;8.37;;;6.43;;
577;SDS011;275;48.492;9.214;2023-05-15T07:28:43;7.30;;;5.80;;
577;SDS011;275;48.492;9.214;2023-05-15T07:31:10;6.80;;;6.17;;
577;SDS011;275;48.492;9.214;2023-05-15T07:33:37;7.17;;;6.57;;
577;SDS011;275;48.492;9.214;2023-05-15T07:36:04;7.23;;;6.60;;
577;SDS011;275;48.492;9.214;2023-05-15T07:38:31;8.43;;;6.97;;
577;SDS011;275;48.492;9.214;2023-05-15T07:40:59;7.30;;;6.70;;
577;SDS011;275;48.492;9.214;2023-05-15T07:43:26;7.70;;;6.87;;
577;SDS011;275;48.492;9.214;2023-05-15T07:45:53;7.53;;;6.90;;
577;SDS011;275;48.492;9.214;2023-05-15T07:48:19;8.20;;;7.50;;
577;SDS011;275;48.492;9.214;2023-05-15T07:50:46;7.33;;;6.63;;
577;SDS011;275;48.492;9.214;2023-05-15T07:53:15;8.03;;;7.23;;
577;SDS011;275;48.492;9.214;2023-05-15T07:55:42;7.43;;;6.73;;
577;SDS011;275;48.492;9.214;2023-05-15T07:58:10;6.87;;;6.27;;
577;SDS011;275;48.492;9.214;2023-05-15T08:00:37;7.17;;;6.47;;
577;SDS011;275;48.492;9.214;2023-05-15T08:03:04;7.57;;;6.60;;
577;SDS011;275;48.492;9.214;2023-05-15T08:05:31;7.83;;;7.13;;
577;SDS011;275;48.492;9.214;2023-05-15T08:07:58;6.20;;;5.60;;
577;SDS011;275;48.492;9.214;2023-05-15T08:10:25;7.57;;;6.80;;
577;SDS011;275;48.492;9.214;2023-05-15T08:12:52;7.67;;;7.00;;
577;SDS011;275;48.492;9.214;2023-05-15T08:15:21;6.77;;;6.17;;
577;SDS011;275;48.492;9.214;2023-05-15T08:17:48;7.63;;;6.93;;
577;SDS011;275;48.492;9.214;2023-05-15T08:20:15;6.53;;;5.93;;
577;SDS011;275;48.492;9.214;2023-05-15T08:22:42;8.40;;;6.83;;
577;SDS011;275;48.492;9.214;2023-05-15T08:25:09;8.50;;;7.70;;
577;SDS011;275;48.492;9.214;2023-05-15T08:27:35;7.33;;;6.63;;
577;SDS011;275;48.492;9.214;2023-05-15T08:30:02;8.00;;;7.20;;
577;SDS011;275;48.492;9.214;2023-05-15T08:32:31;7.23;;;6.10;;
577;SDS011;275;48.492;9.214;2023-05-15T08:34:58;7.37;;;6.57;;
577;SDS011;275;48.492;9.214;2023-05-15T08:37:25;7.57;;;6.37;;
577;SDS011;275;48.492;9.214;2023-05-15T08:39:52;7.60;;;6.10;;
577;SDS011;275;48.492;9.214;2023-05-15T08:42:20;6.63;;;5.53;;
577;SDS011;275;48.492;9.214;2023-05-15T08:44:51;7.23;;;5.47;;
577;SDS011;275;48.492;9.214;2023-05-15T08:47:19;5.87;;;5.37;;
577;SDS011;275;48.492;9.214;2023-05-15T08:49:50;6.97;;;5.70;;
577;SDS011;275;48.492;9.214;2023-05-15T08:52:24;6.10;;;5.23;;
577;SDS011;275;48.492;9.214;2023-05-15T08:54:51;5.67;;;5.07;;
577;SDS011;275;48.492;9.214;2023-05-15T08:57:18;5.50;;;4.80;;
577;SDS011;275;48.492;9.214;2023-05-15T08:59:46;5.30;;;4.80;;
577;SDS011;275;48.492;9.214;2023-05-15T09:02:14;6.93;;;5.17;;
577;SDS011;275;48.492;9.214;2023-05-15T09:04:42;6.93;;;5.37;;
577;SDS011;275;48.492;9.214;2023-05-15T09:07:11;6.80;;;5.40;;
577;SDS011;275;48.492;9.214;2023-05-15T09:09:37;6.27;;;5.00;;
577;SDS011;275;48.492;9.214;2023-05-15T09:12:05;6.37;;;5.27;;
577;SDS011;275;48.492;9.214;2023-05-15T09:14:35;6.57;;;5.53;;
577;SDS011;275;48.492;9.214;2023-05-15T09:17:02;6.27;;;4.97;;
577;SDS011;275;48.492;9.214;2023-05-15T09:19:30;6.50;;;5.80;;
577;SDS011;275;48.492;9.214;2023-05-15T09:22:01;6.73;;;6.03;;
577;SDS011;275;48.492;9.214;2023-05-15T09:24:42;5.83;;;4.77;;
577;SDS011;275;48.492;9.214;2023-05-15T09:27:12;7.47;;;5.80;;
577;SDS011;275;48.492;9.214;2023-05-15T09:29:39;6.60;;;5.93;;
577;SDS011;275;48.492;9.214;2023-05-15T09:32:06;6.40;;;5.10;;
577;SDS011;275;48.492;9.214;2023-05-15T09:34:34;5.67;;;5.07;;
577;SDS011;275;48.492;9.214;2023-05-15T09:37:03;5.30;;;4.40;;
577;SDS011;275;48.492;9.214;2023-05-15T09:39:34;6.57;;;4.70;;
577;SDS011;275;48.492;9.214;2023-05-15T09:42:06;5.87;;;4.83;;
577;SDS011;275;48.492;9.214;2023-05-15T09:44:34;6.30;;;4.57;;
577;SDS011;275;48.492;9.214;2023-05-15T09:47:01;4.97;;;4.03;;
577;SDS011;275;48.492;9.214;2023-05-15T09:49:30;5.17;;;4.67;;
577;SDS011;275;48.492;9.214;2023-05-15T09:51:57;6.37;;;4.57;;
577;SDS011;275;48.492;9.214;2023-05-15T09:54:25;6.93;;;4.30;;
577;SDS011;275;48.492;9.214;2023-05-15T09:56:55;6.90;;;4.80;;
577;SDS011;275;48.492;9.214;2023-05-15T09:59:32;6.37;;;4.10;;
577;SDS011;275;48.492;9.214;2023-05-15T10:01:59;5.30;;;4.70;;
577;SDS011;275;48.492;9.214;2023-05-15T10:04:25;5.23;;;4.50;;
577;SDS011;275;48.492;9.214;2023-05-15T10:06:58;6.13;;;4.67;;
577;SDS011;275;48.492;9.214;2023-05-15T10:09:28;6.40;;;5.10;;
577;SDS011;275;48.492;9.214;2023-05-15T10:11:57;6.30;;;5.23;;
577;SDS011;275;48.492;9.214;2023-05-15T10:14:24;5.20;;;4.40;;
577;SDS011;275;48.492;9.214;2023-05-15T10:16:52;6.77;;;5.77;;
577;SDS011;275;48.492;9.214;2023-05-15T10:19:21;6.20;;;5.50;;
577;SDS011;275;48.492;9.214;2023-05-15T10:21:50;6.20;;;5.60;;
577;SDS011;275;48.492;9.214;2023-05-15T10:24:20;8.67;;;6.30;;
577;SDS011;275;48.492;9.214;2023-05-15T10:26:50;9.60;;;7.17;;
577;SDS011;275;48.492;9.214;2023-05-15T10:29:21;6.10;;;5.50;;
577;SDS011;275;48.492;9.214;2023-05-15T10:31:51;4.90;;;4.10;;
577;SDS011;275;48.492;9.214;2023-05-15T10:34:18;5.10;;;2.67;;
577;SDS011;275;48.492;9.214;2023-05-15T10:36:46;4.70;;;3.30;;
577;SDS011;275;48.492;9.214;2023-05-15T10:39:15;5.37;;;4.40;;
577;SDS011;275;48.492;9.214;2023-05-15T10:41:44;4.90;;;4.00;;
577;SDS011;275;48.492;9.214;2023-05-15T10:44:11;5.80;;;3.80;;
577;SDS011;275;48.492;9.214;2023-05-15T10:46:42;3.67;;;2.70;;
577;SDS011;275;48.492;9.214;2023-05-15T10:49:09;3.17;;;1.83;;
577;SDS011;275;48.492;9.214;2023-05-15T10:51:36;3.80;;;2.43;;
577;SDS011;275;48.492;9.214;2023-05-15T10:54:04;4.17;;;2.30;;
577;SDS011;275;48.492;9.214;2023-05-15T10:56:32;3.40;;;2.07;;
577;SDS011;275;48.492;9.214;2023-05-15T10:59:04;3.10;;;2.10;;
577;SDS011;275;48.492;9.214;2023-05-15T11:01:32;4.97;;;2.57;;
577;SDS011;275;48.492;9.214;2023-05-15T11:04:05;3.23;;;2.10;;
577;SDS011;275;48.492;9.214;2023-05-15T11:06:33;6.13;;;2.10;;
577;SDS011;275;48.492;9.214;2023-05-15T11:12:00;4.50;;;2.53;;
577;SDS011;275;48.492;9.214;2023-05-15T11:14:28;3.60;;;2.53;;
577;SDS011;275;48.492;9.214;2023-05-15T11:16:57;3.60;;;1.90;;
577;SDS011;275;48.492;9.214;2023-05-15T11:19:30;5.47;;;3.20;;
577;SDS011;275;48.492;9.214;2023-05-15T11:21:59;4.53;;;2.30;;
577;SDS011;275;48.492;9.214;2023-05-15T11:24:27;4.20;;;2.17;;
577;SDS011;275;48.492;9.214;2023-05-15T11:26:58;4.60;;;2.00;;
577;SDS011;275;48.492;9.214;2023-05-15T11:29:25;3.67;;;1.83;;
577;SDS011;275;48.492;9.214;2023-05-15T11:31:52;5.00;;;1.90;;
577;SDS011;275;48.492;9.214;2023-05-15T11:34:30;3.57;;;1.50;;
577;SDS011;275;48.492;9.214;2023-05-15T11:36:58;4.43;;;2.50;;
577;SDS011;275;48.492;9.214;2023-05-15T11:39:25;5.43;;;2.27;;
577;SDS011;275;48.492;9.214;2023-05-15T11:41:52;6.20;;;4.60;;
577;SDS011;275;48.492;9.214;2023-05-15T11:44:20;3.50;;;2.30;;
577;SDS011;275;48.492;9.214;2023-05-15T11:46:47;4.17;;;2.20;;
577;SDS011;275;48.492;9.214;2023-05-15T11:49:15;3.70;;;2.30;;
577;SDS011;275;48.492;9.214;2023-05-15T11:51:45;4.10;;;2.60;;
577;SDS011;275;48.492;9.214;2023-05-15T11:54:13;3.93;;;2.50;;
577;SDS011;275;48.492;9.214;2023-05-15T11:56:42;4.20;;;2.60;;
577;SDS011;275;48.492;9.214;2023-05-15T11:59:11;5.33;;;2.90;;
577;SDS011;275;48.492;9.214;2023-05-15T12:01:39;4.43;;;2.60;;
577;SDS011;275;48.492;9.214;2023-05-15T12:04:13;4.37;;;3.27;;
577;SDS011;275;48.492;9.214;2023-05-15T12:06:41;3.90;;;3.00;;
577;SDS011;275;48.492;9.214;2023-05-15T12:09:13;4.40;;;3.60;;
577;SDS011;275;48.492;9.214;2023-05-15T12:11:46;4.80;;;3.80;;
577;SDS011;275;48.492;9.214;2023-05-15T12:14:14;6.40;;;4.10;;
577;SDS011;275;48.492;9.214;2023-05-15T12:16:41;4.63;;;3.90;;
577;SDS011;275;48.492;9.214;2023-05-15T12:19:08;4.40;;;3.50;;
577;SDS011;275;48.492;9.214;2023-05-15T12:21:35;3.77;;;3.20;;
577;SDS011;275;48.492;9.214;2023-05-15T12:24:09;6.27;;;4.03;;
577;SDS011;275;48.492;9.214;2023-05-15T12:26:38;4.70;;;4.20;;
577;SDS011;275;48.492;9.214;2023-05-15T12:29:05;4.73;;;4.07;;
577;SDS011;275;48.492;9.214;2023-05-15T12:31:33;4.70;;;4.30;;
577;SDS011;275;48.492;9.214;2023-05-15T12:34:01;5.00;;;4.20;;
577;SDS011;275;48.492;9.214;2023-05-15T12:36:28;5.13;;;4.10;;
577;SDS011;275;48.492;9.214;2023-05-15T12:38:55;4.93;;;4.20;;
577;SDS011;275;48.492;9.214;2023-05-15T12:41:25;4.23;;;3.53;;
577;SDS011;275;48.492;9.214;2023-05-15T12:43:54;4.43;;;3.57;;
577;SDS011;275;48.492;9.214;2023-05-15T12:46:21;4.20;;;3.70;;
577;SDS011;275;48.492;9.214;2023-05-15T12:48:48;4.70;;;4.20;;
577;SDS011;275;48.492;9.214;2023-05-15T12:51:15;4.57;;;3.80;;
577;SDS011;275;48.492;9.214;2023-05-15T12:53:43;4.80;;;3.20;;
577;SDS011;275;48.492;9.214;2023-05-15T12:56:14;5.60;;;4.10;;
577;SDS011;275;48.492;9.214;2023-05-15T12:58:41;5.97;;;4.40;;
577;SDS011;275;48.492;9.214;2023-05-15T13:01:09;7.17;;;4.20;;
577;SDS011;275;48.492;9.214;2023-05-15T13:03:36;4.40;;;3.77;;
577;SDS011;275;48.492;9.214;2023-05-15T13:06:03;4.53;;;4.13;;
577;SDS011;275;48.492;9.214;2023-05-15T13:08:35;5.50;;;4.00;;
577;SDS011;275;48.492;9.214;2023-05-15T13:11:05;4.27;;;3.87;;
577;SDS011;275;48.492;9.214;2023-05-15T13:13:40;4.87;;;4.37;;
577;SDS011;275;48.492;9.214;2023-05-15T13:16:18;4.90;;;3.77;;
577;SDS011;275;48.492;9.214;2023-05-15T13:18:49;6.30;;;4.47;;
577;SDS011;275;48.492;9.214;2023-05-15T13:21:16;6.17;;;4.07;;
577;SDS011;275;48.492;9.214;2023-05-15T13:23:43;4.10;;;3.70;;
577;SDS011;275;48.492;9.214;2023-05-15T13:26:09;4.73;;;3.87;;
577;SDS011;275;48.492;9.214;2023-05-15T13:28:36;5.97;;;4.80;;
577;SDS011;275;48.492;9.214;2023-05-15T13:31:04;4.80;;;4.30;;
577;SDS011;275;48.492;9.214;2023-05-15T13:33:32;8.33;;;5.17;;
577;SDS011;275;48.492;9.214;2023-05-15T13:35:59;4.93;;;4.43;;
577;SDS011;275;48.492;9.214;2023-05-15T13:38:26;5.10;;;4.00;;
577;SDS011;275;48.492;9.214;2023-05-15T13:40:53;5.07;;;4.17;;
577;SDS011;275;48.492;9.214;2023-05-15T13:43:20;4.47;;;3.67;;
577;SDS011;275;48.492;9.214;2023-05-15T13:45:47;4.60;;;4.10;;
577;SDS011;275;48.492;9.214;2023-05-15T13:48:13;4.60;;;3.63;;
577;SDS011;275;48.492;9.214;2023-05-15T13:50:42;5.10;;;3.87;;
577;SDS011;275;48.492;9.214;2023-05-15T13:53:09;4.63;;;4.23;;
577;SDS011;275;48.492;9.214;2023-05-15T13:55:40;5.20;;;4.10;;
577;SDS011;275;48.492;9.214;2023-05-15T13:58:08;5.10;;;4.57;;
577;SDS011;275;48.492;9.214;2023-05-15T14:00:35;4.90;;;4.40;;
577;SDS011;275;48.492;9.214;2023-05-15T14:03:02;5.00;;;3.80;;
577;SDS011;275;48.492;9.214;2023-05-15T14:05:29;3.60;;;3.30;;
577;SDS011;275;48.492;9.214;2023-05-15T14:07:57;4.40;;;3.93;;
577;SDS011;275;48.492;9.214;2023-05-15T14:10:24;4.60;;;4.20;;
577;SDS011;275;48.492;9.214;2023-05-15T14:12:51;4.40;;;3.70;;
577;SDS011;275;48.492;9.214;2023-05-15T14:15:18;5.20;;;4.70;;
577;SDS011;275;48.492;9.214;2023-05-15T14:17:45;4.93;;;4.43;;
577;SDS011;275;48.492;9.214;2023-05-15T14:20:12;5.17;;;4.03;;
577;SDS011;275;48.492;9.214;2023-05-15T14:22:39;4.43;;;3.47;;
577;SDS011;275;48.492;9.214;2023-05-15T14:25:08;6.43;;;4.70;;
577;SDS011;275;48.492;9.214;2023-05-15T14:27:36;4.80;;;4.13;;
577;SDS011;275;48.492;9.214;2023-05-15T14:30:03;5.40;;;4.60;;
577;SDS011;275;48.492;9.214;2023-05-15T14:32:30;4.63;;;3.90;;
577;SDS011;275;48.492;9.214;2023-05-15T14:34:57;6.30;;;4.40;;
577;SDS011;275;48.492;9.214;2023-05-15T14:37:24;4.33;;;3.93;;
577;SDS011;275;48.492;9.214;2023-05-15T14:39:52;5.47;;;4.90;;
577;SDS011;275;48.492;9.214;2023-05-15T14:42:20;4.90;;;4.40;;
577;SDS011;275;48.492;9.214;2023-05-15T14:44:47;5.30;;;4.60;;
577;SDS011;275;48.492;9.214;2023-05-15T14:47:14;6.50;;;5.90;;
577;SDS011;275;48.492;9.214;2023-05-15T14:49:41;5.60;;;5.10;;
577;SDS011;275;48.492;9.214;2023-05-15T14:52:08;6.83;;;5.87;;
577;SDS011;275;48.492;9.214;2023-05-15T14:54:36;7.77;;;7.03;;
577;SDS011;275;48.492;9.214;2023-05-15T14:57:03;6.90;;;6.30;;
577;SDS011;275;48.492;9.214;2023-05-15T14:59:32;7.77;;;7.07;;
577;SDS011;275;48.492;9.214;2023-05-15T15:01:59;8.10;;;7.40;;
577;SDS011;275;48.492;9.214;2023-05-15T15:04:26;7.93;;;7.13;;
577;SDS011;275;48.492;9.214;2023-05-15T15:06:54;6.83;;;6.23;;
577;SDS011;275;48.492;9.214;2023-05-15T15:09:21;5.80;;;5.20;;
577;SDS011;275;48.492;9.214;2023-05-15T15:11:48;6.43;;;5.83;;
577;SDS011;275;48.492;9.214;2023-05-15T15:14:15;6.97;;;6.37;;
577;SDS011;275;48.492;9.214;2023-05-15T15:16:43;6.23;;;5.63;;
577;SDS011;275;48.492;9.214;2023-05-15T15:19:10;6.37;;;5.77;;
577;SDS011;275;48.492;9.214;2023-05-15T15:21:37;6.50;;;5.90;;
577;SDS011;275;48.492;9.214;2023-05-15T15:24:04;6.97;;;6.30;;
577;SDS011;275;48.492;9.214;2023-05-15T15:26:32;6.70;;;6.10;;
577;SDS011;275;48.492;9.214;2023-05-15T15:28:59;8.80;;;6.27;;
577;SDS011;275;48.492;9.214;2023-05-15T15:31:26;5.73;;;5.10;;
577;SDS011;275;48.492;9.214;2023-05-15T15:33:55;5.93;;;5.43;;
577;SDS011;275;48.492;9.214;2023-05-15T15:36:22;6.03;;;5.53;;
577;SDS011;275;48.492;9.214;2023-05-15T15:38:49;5.47;;;4.97;;
577;SDS011;275;48.492;9.214;2023-05-15T15:41:16;6.43;;;5.83;;
577;SDS011;275;48.492;9.214;2023-05-15T15:43:45;6.57;;;6.00;;